sensor_id;sensor_type;location;lat;lon;timestamp;temperature;humidity
20700;DHT22;10511;51.232;9.420;2023-07-20T00:02:25;17.60;99.90
20700;DHT22;10511;51.232;9.420;2023-07-20T00:04:52;17.50;99.90
20700;DHT22;10511;51.232;9.420;2023-07-20T00:07:19;17.50;99.90
20700;DHT22;10511;51.232;9.420;2023-07-20T00:09:46;17.50;99.90
20700;DHT22;10511;51.232;9.420;2023-07-20T00:12:14;17.50;99.90
20700;DHT22;10511;51.232;9.420;2023-07-20T00:14:42;17.60;99.90
20700;DHT22;10511;51.232;9.420;2023-07-20T00:17:09;17.60;99.90
20700;DHT22;10511;51.232;9.420;2023-07-20T00:19:36;17.70;99.90
20700;DHT22;10511;51.232;9.420;2023-07-20T00:22:03;17.80;99.90
20700;DHT22;10511;51.232;9.420;2023-07-20T00:24:31;17.80;99.90
20700;DHT22;10511;51.232;9.420;2023-07-20T00:26:58;17.80;99.90
20700;DHT22;10511;51.232;9.420;2023-07-20T00:29:26;17.90;99.90
20700;DHT22;10511;51.232;9.420;2023-07-20T00:31:58;17.90;99.90
20700;DHT22;10511;51.232;9.420;2023-07-20T00:34:25;17.70;99.90
20700;DHT22;10511;51.232;9.420;2023-07-20T00:36:52;17.70;99.90
20700;DHT22;10511;51.232;9.420;2023-07-20T00:39:19;17.70;99.90
20700;DHT22;10511;51.232;9.420;2023-07-20T00:41:46;17.70;99.90
20700;DHT22;10511;51.232;9.420;2023-07-20T00:44:13;17.70;99.90
20700;DHT22;10511;51.232;9.420;2023-07-20T00:46:40;17.70;99.90
20700;DHT22;10511;51.232;9.420;2023-07-20T00:49:11;17.70;99.90
20700;DHT22;10511;51.232;9.420;2023-07-20T00:51:38;17.70;99.90
20700;DHT22;10511;51.232;9.420;2023-07-20T00:54:05;17.70;99.90
20700;DHT22;10511;51.232;9.420;2023-07-20T00:56:32;17.70;99.90
20700;DHT22;10511;51.232;9.420;2023-07-20T00:58:59;17.70;99.90
20700;DHT22;10511;51.232;9.420;2023-07-20T01:01:26;17.60;99.90
20700;DHT22;10511;51.232;9.420;2023-07-20T01:03:53;17.70;99.90
20700;DHT22;10511;51.232;9.420;2023-07-20T01:06:29;17.70;99.90
20700;DHT22;10511;51.232;9.420;2023-07-20T01:09:02;17.50;99.90
20700;DHT22;10511;51.232;9.420;2023-07-20T01:11:37;17.30;99.90
20700;DHT22;10511;51.232;9.420;2023-07-20T01:14:05;17.20;99.90
20700;DHT22;10511;51.232;9.420;2023-07-20T01:16:33;17.20;99.90
20700;DHT22;10511;51.232;9.420;2023-07-20T01:19:00;17.20;99.90
20700;DHT22;10511;51.232;9.420;2023-07-20T01:21:33;17.20;99.90
20700;DHT22;10511;51.232;9.420;2023-07-20T01:24:41;17.20;99.90
20700;DHT22;10511;51.232;9.420;2023-07-20T01:27:32;17.10;99.90
20700;DHT22;10511;51.232;9.420;2023-07-20T01:30:21;17.10;99.90
20700;DHT22;10511;51.232;9.420;2023-07-20T01:32:54;16.80;99.90
20700;DHT22;10511;51.232;9.420;2023-07-20T01:35:24;16.60;99.90
20700;DHT22;10511;51.232;9.420;2023-07-20T01:37:54;16.50;99.90
20700;DHT22;10511;51.232;9.420;2023-07-20T01:40:22;16.40;99.90
20700;DHT22;10511;51.232;9.420;2023-07-20T01:42:51;16.40;99.90
20700;DHT22;10511;51.232;9.420;2023-07-20T01:45:19;16.40;99.90
20700;DHT22;10511;51.232;9.420;2023-07-20T01:47:46;16.40;99.90
20700;DHT22;10511;51.232;9.420;2023-07-20T01:50:14;16.30;99.90
20700;DHT22;10511;51.232;9.420;2023-07-20T01:52:41;16.20;99.90
20700;DHT22;10511;51.232;9.420;2023-07-20T01:55:08;16.20;99.90
20700;DHT22;10511;51.232;9.420;2023-07-20T01:57:35;16.40;99.90
20700;DHT22;10511;51.232;9.420;2023-07-20T02:00:04;16.50;99.90
20700;DHT22;10511;51.232;9.420;2023-07-20T02:02:31;16.50;99.90
20700;DHT22;10511;51.232;9.420;2023-07-20T02:04:58;16.50;99.90
20700;DHT22;10511;51.232;9.420;2023-07-20T02:07:26;16.40;99.90
20700;DHT22;10511;51.232;9.420;2023-07-20T02:09:53;16.40;99.90
20700;DHT22;10511;51.232;9.420;2023-07-20T02:12:20;16.40;99.90
20700;DHT22;10511;51.232;9.420;2023-07-20T02:14:47;16.50;99.90
20700;DHT22;10511;51.232;9.420;2023-07-20T02:17:16;16.50;99.90
20700;DHT22;10511;51.232;9.420;2023-07-20T02:19:43;16.40;99.90
20700;DHT22;10511;51.232;9.420;2023-07-20T02:22:10;16.60;99.90
20700;DHT22;10511;51.232;9.420;2023-07-20T02:24:39;16.70;99.90
20700;DHT22;10511;51.232;9.420;2023-07-20T02:27:06;16.80;99.90
20700;DHT22;10511;51.232;9.420;2023-07-20T02:29:34;16.90;99.90
20700;DHT22;10511;51.232;9.420;2023-07-20T02:32:01;16.90;99.90
20700;DHT22;10511;51.232;9.420;2023-07-20T02:34:28;16.90;99.90
20700;DHT22;10511;51.232;9.420;2023-07-20T02:36:55;17.00;99.90
20700;DHT22;10511;51.232;9.420;2023-07-20T02:39:23;17.00;99.90
20700;DHT22;10511;51.232;9.420;2023-07-20T02:41:52;17.10;99.90
20700;DHT22;10511;51.232;9.420;2023-07-20T02:44:19;17.10;99.90
20700;DHT22;10511;51.232;9.420;2023-07-20T02:46:46;17.10;99.90
20700;DHT22;10511;51.232;9.420;2023-07-20T02:49:15;17.10;99.90
20700;DHT22;10511;51.232;9.420;2023-07-20T02:51:42;17.10;99.90
20700;DHT22;10511;51.232;9.420;2023-07-20T02:54:09;17.00;99.90
20700;DHT22;10511;51.232;9.420;2023-07-20T02:56:36;17.00;99.90
20700;DHT22;10511;51.232;9.420;2023-07-20T02:59:05;16.90;99.90
20700;DHT22;10511;51.232;9.420;2023-07-20T03:01:32;16.80;99.90
20700;DHT22;10511;51.232;9.420;2023-07-20T03:03:59;16.80;99.90
20700;DHT22;10511;51.232;9.420;2023-07-20T03:06:26;16.80;99.90
20700;DHT22;10511;51.232;9.420;2023-07-20T03:08:53;16.90;99.90
20700;DHT22;10511;51.232;9.420;2023-07-20T03:11:20;16.70;99.90
20700;DHT22;10511;51.232;9.420;2023-07-20T03:13:47;16.70;99.90
20700;DHT22;10511;51.232;9.420;2023-07-20T03:16:18;16.40;99.90
20700;DHT22;10511;51.232;9.420;2023-07-20T03:18:45;16.20;99.90
20700;DHT22;10511;51.232;9.420;2023-07-20T03:21:13;16.00;99.90
20700;DHT22;10511;51.232;9.420;2023-07-20T03:23:40;15.90;99.90
20700;DHT22;10511;51.232;9.420;2023-07-20T03:26:08;15.80;99.90
20700;DHT22;10511;51.232;9.420;2023-07-20T03:28:35;15.60;99.90
20700;DHT22;10511;51.232;9.420;2023-07-20T03:31:02;15.50;99.90
20700;DHT22;10511;51.232;9.420;2023-07-20T03:33:30;15.40;99.90
20700;DHT22;10511;51.232;9.420;2023-07-20T03:35:58;15.50;99.90
20700;DHT22;10511;51.232;9.420;2023-07-20T03:38:26;15.60;99.90
20700;DHT22;10511;51.232;9.420;2023-07-20T03:40:53;15.70;99.90
20700;DHT22;10511;51.232;9.420;2023-07-20T03:43:21;15.80;99.90
20700;DHT22;10511;51.232;9.420;2023-07-20T03:45:48;15.80;99.90
20700;DHT22;10511;51.232;9.420;2023-07-20T03:48:16;15.80;99.90
20700;DHT22;10511;51.232;9.420;2023-07-20T03:50:45;15.70;99.90
20700;DHT22;10511;51.232;9.420;2023-07-20T03:53:13;15.70;99.90
20700;DHT22;10511;51.232;9.420;2023-07-20T03:55:40;15.80;99.90
20700;DHT22;10511;51.232;9.420;2023-07-20T03:58:08;15.90;99.90
20700;DHT22;10511;51.232;9.420;2023-07-20T04:00:35;16.00;99.90
20700;DHT22;10511;51.232;9.420;2023-07-20T04:03:02;16.00;99.90
20700;DHT22;10511;51.232;9.420;2023-07-20T04:05:29;16.00;99.90
20700;DHT22;10511;51.232;9.420;2023-07-20T04:07:58;16.10;99.90
20700;DHT22;10511;51.232;9.420;2023-07-20T04:10:25;16.00;99.90
20700;DHT22;10511;51.232;9.420;2023-07-20T04:12:52;16.00;99.90
20700;DHT22;10511;51.232;9.420;2023-07-20T04:15:19;16.10;99.90
20700;DHT22;10511;51.232;9.420;2023-07-20T04:17:46;16.20;99.90
20700;DHT22;10511;51.232;9.420;2023-07-20T04:20:13;16.20;99.90
20700;DHT22;10511;51.232;9.420;2023-07-20T04:22:40;16.20;99.90
20700;DHT22;10511;51.232;9.420;2023-07-20T04:25:08;16.10;99.90
20700;DHT22;10511;51.232;9.420;2023-07-20T04:27:36;16.00;99.90
20700;DHT22;10511;51.232;9.420;2023-07-20T04:30:04;16.00;99.90
20700;DHT22;10511;51.232;9.420;2023-07-20T04:32:33;16.00;99.90
20700;DHT22;10511;51.232;9.420;2023-07-20T04:35:00;16.10;99.90
20700;DHT22;10511;51.232;9.420;2023-07-20T04:37:27;16.10;99.90
20700;DHT22;10511;51.232;9.420;2023-07-20T04:39:54;16.10;99.90
20700;DHT22;10511;51.232;9.420;2023-07-20T04:42:22;16.20;99.90
20700;DHT22;10511;51.232;9.420;2023-07-20T04:44:49;16.20;99.90
20700;DHT22;10511;51.232;9.420;2023-07-20T04:47:16;16.20;99.90
20700;DHT22;10511;51.232;9.420;2023-07-20T04:49:43;16.30;99.90
20700;DHT22;10511;51.232;9.420;2023-07-20T04:52:10;16.40;99.90
20700;DHT22;10511;51.232;9.420;2023-07-20T04:57:42;16.40;99.90
20700;DHT22;10511;51.232;9.420;2023-07-20T05:00:10;16.50;99.90
20700;DHT22;10511;51.232;9.420;2023-07-20T05:02:38;16.40;99.90
20700;DHT22;10511;51.232;9.420;2023-07-20T05:05:06;16.30;99.90
20700;DHT22;10511;51.232;9.420;2023-07-20T05:07:33;16.30;99.90
20700;DHT22;10511;51.232;9.420;2023-07-20T05:10:00;16.30;99.90
20700;DHT22;10511;51.232;9.420;2023-07-20T05:12:27;16.30;99.90
20700;DHT22;10511;51.232;9.420;2023-07-20T05:14:56;16.30;99.90
20700;DHT22;10511;51.232;9.420;2023-07-20T05:17:23;16.40;99.90
20700;DHT22;10511;51.232;9.420;2023-07-20T05:19:50;16.30;99.90
20700;DHT22;10511;51.232;9.420;2023-07-20T05:22:17;16.30;99.90
20700;DHT22;10511;51.232;9.420;2023-07-20T05:24:44;16.20;99.90
20700;DHT22;10511;51.232;9.420;2023-07-20T05:27:11;16.20;99.90
20700;DHT22;10511;51.232;9.420;2023-07-20T05:29:42;16.10;99.90
20700;DHT22;10511;51.232;9.420;2023-07-20T05:32:11;16.10;99.90
20700;DHT22;10511;51.232;9.420;2023-07-20T05:34:38;15.90;99.90
20700;DHT22;10511;51.232;9.420;2023-07-20T05:37:05;15.90;99.90
20700;DHT22;10511;51.232;9.420;2023-07-20T05:39:32;15.90;99.90
20700;DHT22;10511;51.232;9.420;2023-07-20T05:41:59;16.00;99.90
20700;DHT22;10511;51.232;9.420;2023-07-20T05:44:26;16.10;99.90
20700;DHT22;10511;51.232;9.420;2023-07-20T05:46:53;16.30;99.90
20700;DHT22;10511;51.232;9.420;2023-07-20T05:49:22;16.30;99.90
20700;DHT22;10511;51.232;9.420;2023-07-20T05:51:49;16.40;99.90
20700;DHT22;10511;51.232;9.420;2023-07-20T05:54:16;16.50;99.90
20700;DHT22;10511;51.232;9.420;2023-07-20T05:56:42;16.60;99.90
20700;DHT22;10511;51.232;9.420;2023-07-20T05:59:10;16.70;99.90
20700;DHT22;10511;51.232;9.420;2023-07-20T06:01:36;16.70;99.90
20700;DHT22;10511;51.232;9.420;2023-07-20T06:04:04;16.70;99.90
20700;DHT22;10511;51.232;9.420;2023-07-20T06:06:32;16.70;99.90
20700;DHT22;10511;51.232;9.420;2023-07-20T06:09:00;16.70;99.90
20700;DHT22;10511;51.232;9.420;2023-07-20T06:11:29;16.70;99.90
20700;DHT22;10511;51.232;9.420;2023-07-20T06:13:57;16.70;99.90
20700;DHT22;10511;51.232;9.420;2023-07-20T06:16:23;16.70;99.90
20700;DHT22;10511;51.232;9.420;2023-07-20T06:18:50;16.60;99.90
20700;DHT22;10511;51.232;9.420;2023-07-20T06:21:17;16.60;99.90
20700;DHT22;10511;51.232;9.420;2023-07-20T06:23:46;16.50;99.90
20700;DHT22;10511;51.232;9.420;2023-07-20T06:26:13;16.40;99.90
20700;DHT22;10511;51.232;9.420;2023-07-20T06:28:41;16.40;99.90
20700;DHT22;10511;51.232;9.420;2023-07-20T06:31:08;16.30;99.90
20700;DHT22;10511;51.232;9.420;2023-07-20T06:33:35;16.30;99.90
20700;DHT22;10511;51.232;9.420;2023-07-20T06:36:02;16.40;99.90
20700;DHT22;10511;51.232;9.420;2023-07-20T06:38:29;16.50;99.90
20700;DHT22;10511;51.232;9.420;2023-07-20T06:40:58;16.50;99.90
20700;DHT22;10511;51.232;9.420;2023-07-20T06:43:25;16.50;99.90
20700;DHT22;10511;51.232;9.420;2023-07-20T06:45:52;16.60;99.90
20700;DHT22;10511;51.232;9.420;2023-07-20T06:48:19;16.50;99.90
20700;DHT22;10511;51.232;9.420;2023-07-20T06:50:46;16.40;99.90
20700;DHT22;10511;51.232;9.420;2023-07-20T06:53:13;16.40;99.90
20700;DHT22;10511;51.232;9.420;2023-07-20T06:55:42;16.40;99.90
20700;DHT22;10511;51.232;9.420;2023-07-20T06:58:11;16.40;99.90
20700;DHT22;10511;51.232;9.420;2023-07-20T07:00:38;16.30;99.90
20700;DHT22;10511;51.232;9.420;2023-07-20T07:03:05;16.30;99.90
20700;DHT22;10511;51.232;9.420;2023-07-20T07:05:35;16.30;99.90
20700;DHT22;10511;51.232;9.420;2023-07-20T07:08:03;16.30;99.90
20700;DHT22;10511;51.232;9.420;2023-07-20T07:10:30;16.30;99.90
20700;DHT22;10511;51.232;9.420;2023-07-20T07:12:57;16.30;99.90
20700;DHT22;10511;51.232;9.420;2023-07-20T07:15:25;16.30;99.90
20700;DHT22;10511;51.232;9.420;2023-07-20T07:17:53;16.30;99.90
20700;DHT22;10511;51.232;9.420;2023-07-20T07:20:20;16.20;99.90
20700;DHT22;10511;51.232;9.420;2023-07-20T07:22:47;16.00;99.90
20700;DHT22;10511;51.232;9.420;2023-07-20T07:25:14;15.90;99.90
20700;DHT22;10511;51.232;9.420;2023-07-20T07:27:41;15.80;99.90
20700;DHT22;10511;51.232;9.420;2023-07-20T07:30:09;15.80;99.90
20700;DHT22;10511;51.232;9.420;2023-07-20T07:32:38;15.80;99.90
20700;DHT22;10511;51.232;9.420;2023-07-20T07:35:05;15.90;99.90
20700;DHT22;10511;51.232;9.420;2023-07-20T07:37:32;15.90;99.90
20700;DHT22;10511;51.232;9.420;2023-07-20T07:39:59;15.80;99.90
20700;DHT22;10511;51.232;9.420;2023-07-20T07:42:26;15.80;99.90
20700;DHT22;10511;51.232;9.420;2023-07-20T07:44:55;15.90;99.90
20700;DHT22;10511;51.232;9.420;2023-07-20T07:47:22;15.90;99.90
20700;DHT22;10511;51.232;9.420;2023-07-20T07:49:50;16.00;99.90
20700;DHT22;10511;51.232;9.420;2023-07-20T07:52:17;16.00;99.90
20700;DHT22;10511;51.232;9.420;2023-07-20T07:54:44;16.10;99.90
20700;DHT22;10511;51.232;9.420;2023-07-20T07:57:11;16.20;99.90
20700;DHT22;10511;51.232;9.420;2023-07-20T07:59:39;16.30;99.90
20700;DHT22;10511;51.232;9.420;2023-07-20T08:02:06;16.40;99.90
20700;DHT22;10511;51.232;9.420;2023-07-20T08:04:33;16.40;99.90
20700;DHT22;10511;51.232;9.420;2023-07-20T08:07:04;16.30;99.90
20700;DHT22;10511;51.232;9.420;2023-07-20T08:09:31;16.20;99.90
20700;DHT22;10511;51.232;9.420;2023-07-20T08:11:58;16.30;99.90
20700;DHT22;10511;51.232;9.420;2023-07-20T08:14:37;16.30;99.90
20700;DHT22;10511;51.232;9.420;2023-07-20T08:17:18;16.30;99.90
20700;DHT22;10511;51.232;9.420;2023-07-20T08:19:46;16.20;99.90
20700;DHT22;10511;51.232;9.420;2023-07-20T08:22:15;16.10;99.90
20700;DHT22;10511;51.232;9.420;2023-07-20T08:24:42;16.10;99.90
20700;DHT22;10511;51.232;9.420;2023-07-20T08:27:09;16.10;99.90
20700;DHT22;10511;51.232;9.420;2023-07-20T08:29:37;15.90;99.90
20700;DHT22;10511;51.232;9.420;2023-07-20T08:32:05;15.80;99.90
20700;DHT22;10511;51.232;9.420;2023-07-20T08:34:32;15.80;99.90
20700;DHT22;10511;51.232;9.420;2023-07-20T08:36:59;15.90;99.90
20700;DHT22;10511;51.232;9.420;2023-07-20T08:39:28;16.00;99.90
20700;DHT22;10511;51.232;9.420;2023-07-20T08:41:55;16.10;99.90
20700;DHT22;10511;51.232;9.420;2023-07-20T08:44:24;16.20;99.90
20700;DHT22;10511;51.232;9.420;2023-07-20T08:46:51;16.30;99.90
20700;DHT22;10511;51.232;9.420;2023-07-20T08:49:19;16.20;99.90
20700;DHT22;10511;51.232;9.420;2023-07-20T08:51:46;16.10;99.90
20700;DHT22;10511;51.232;9.420;2023-07-20T08:54:15;16.20;99.90
20700;DHT22;10511;51.232;9.420;2023-07-20T08:56:45;16.20;99.90
20700;DHT22;10511;51.232;9.420;2023-07-20T08:59:13;16.20;99.90
20700;DHT22;10511;51.232;9.420;2023-07-20T09:01:44;16.30;99.90
20700;DHT22;10511;51.232;9.420;2023-07-20T09:04:11;16.30;99.90
20700;DHT22;10511;51.232;9.420;2023-07-20T09:06:39;16.30;99.90
20700;DHT22;10511;51.232;9.420;2023-07-20T09:09:06;16.40;99.90
20700;DHT22;10511;51.232;9.420;2023-07-20T09:11:33;16.50;99.90
20700;DHT22;10511;51.232;9.420;2023-07-20T09:14:05;16.60;99.90
20700;DHT22;10511;51.232;9.420;2023-07-20T09:16:34;16.70;99.90
20700;DHT22;10511;51.232;9.420;2023-07-20T09:19:14;16.90;99.90
20700;DHT22;10511;51.232;9.420;2023-07-20T09:21:44;16.90;99.90
20700;DHT22;10511;51.232;9.420;2023-07-20T09:24:11;16.90;99.90
20700;DHT22;10511;51.232;9.420;2023-07-20T09:26:41;17.10;99.90
20700;DHT22;10511;51.232;9.420;2023-07-20T09:29:10;17.00;99.90
20700;DHT22;10511;51.232;9.420;2023-07-20T09:31:37;17.20;99.90
20700;DHT22;10511;51.232;9.420;2023-07-20T09:34:05;17.20;99.90
20700;DHT22;10511;51.232;9.420;2023-07-20T09:36:33;17.30;99.90
20700;DHT22;10511;51.232;9.420;2023-07-20T09:39:02;17.40;99.90
20700;DHT22;10511;51.232;9.420;2023-07-20T09:41:29;17.40;99.90
20700;DHT22;10511;51.232;9.420;2023-07-20T09:43:56;17.50;99.90
20700;DHT22;10511;51.232;9.420;2023-07-20T09:46:25;17.70;99.90
20700;DHT22;10511;51.232;9.420;2023-07-20T09:49:08;18.00;99.90
20700;DHT22;10511;51.232;9.420;2023-07-20T09:51:36;18.00;99.90
20700;DHT22;10511;51.232;9.420;2023-07-20T09:54:04;18.20;99.90
20700;DHT22;10511;51.232;9.420;2023-07-20T09:56:33;18.30;99.90
20700;DHT22;10511;51.232;9.420;2023-07-20T09:59:00;18.40;99.90
20700;DHT22;10511;51.232;9.420;2023-07-20T10:01:29;18.30;99.90
20700;DHT22;10511;51.232;9.420;2023-07-20T10:03:58;18.10;99.90
20700;DHT22;10511;51.232;9.420;2023-07-20T10:06:28;18.50;99.90
20700;DHT22;10511;51.232;9.420;2023-07-20T10:09:00;18.40;99.90
20700;DHT22;10511;51.232;9.420;2023-07-20T10:11:30;18.70;99.90
20700;DHT22;10511;51.232;9.420;2023-07-20T10:13:59;18.80;99.90
20700;DHT22;10511;51.232;9.420;2023-07-20T10:16:31;18.90;99.90
20700;DHT22;10511;51.232;9.420;2023-07-20T10:19:03;19.40;99.90
20700;DHT22;10511;51.232;9.420;2023-07-20T10:21:33;19.50;99.90
20700;DHT22;10511;51.232;9.420;2023-07-20T10:24:03;19.60;99.90
20700;DHT22;10511;51.232;9.420;2023-07-20T10:26:31;19.70;99.90
20700;DHT22;10511;51.232;9.420;2023-07-20T10:28:58;19.50;99.90
20700;DHT22;10511;51.232;9.420;2023-07-20T10:31:26;19.80;99.90
20700;DHT22;10511;51.232;9.420;2023-07-20T10:33:56;20.00;99.90
20700;DHT22;10511;51.232;9.420;2023-07-20T10:36:27;19.90;99.90
20700;DHT22;10511;51.232;9.420;2023-07-20T10:38:55;20.10;99.90
20700;DHT22;10511;51.232;9.420;2023-07-20T10:41:27;20.40;99.90
20700;DHT22;10511;51.232;9.420;2023-07-20T10:43:58;20.70;99.90
20700;DHT22;10511;51.232;9.420;2023-07-20T10:46:50;20.60;99.90
20700;DHT22;10511;51.232;9.420;2023-07-20T10:49:26;20.60;99.90
20700;DHT22;10511;51.232;9.420;2023-07-20T10:51:57;20.80;99.90
20700;DHT22;10511;51.232;9.420;2023-07-20T10:54:35;20.90;99.90
20700;DHT22;10511;51.232;9.420;2023-07-20T11:00:10;20.70;99.90
20700;DHT22;10511;51.232;9.420;2023-07-20T11:02:45;20.50;99.90
20700;DHT22;10511;51.232;9.420;2023-07-20T11:05:35;20.20;99.90
20700;DHT22;10511;51.232;9.420;2023-07-20T11:08:09;20.10;99.90
20700;DHT22;10511;51.232;9.420;2023-07-20T11:10:37;20.00;99.90
20700;DHT22;10511;51.232;9.420;2023-07-20T11:13:17;20.10;99.90
20700;DHT22;10511;51.232;9.420;2023-07-20T11:15:45;19.90;99.90
20700;DHT22;10511;51.232;9.420;2023-07-20T11:18:13;20.20;99.90
20700;DHT22;10511;51.232;9.420;2023-07-20T11:20:41;20.40;99.90
20700;DHT22;10511;51.232;9.420;2023-07-20T11:23:09;20.50;99.90
20700;DHT22;10511;51.232;9.420;2023-07-20T11:25:39;20.70;99.90
20700;DHT22;10511;51.232;9.420;2023-07-20T11:28:07;20.60;99.90
20700;DHT22;10511;51.232;9.420;2023-07-20T11:30:34;20.40;99.90
20700;DHT22;10511;51.232;9.420;2023-07-20T11:33:01;20.70;99.90
20700;DHT22;10511;51.232;9.420;2023-07-20T11:35:28;20.80;99.90
20700;DHT22;10511;51.232;9.420;2023-07-20T11:37:57;20.70;99.90
20700;DHT22;10511;51.232;9.420;2023-07-20T11:40:24;20.70;99.90
20700;DHT22;10511;51.232;9.420;2023-07-20T11:42:51;21.20;99.90
20700;DHT22;10511;51.232;9.420;2023-07-20T11:45:19;21.50;99.90
20700;DHT22;10511;51.232;9.420;2023-07-20T11:47:46;21.20;99.90
20700;DHT22;10511;51.232;9.420;2023-07-20T11:50:13;20.60;99.90
20700;DHT22;10511;51.232;9.420;2023-07-20T11:52:41;21.00;99.90
20700;DHT22;10511;51.232;9.420;2023-07-20T11:55:10;21.70;99.90
20700;DHT22;10511;51.232;9.420;2023-07-20T11:57:38;21.90;99.90
20700;DHT22;10511;51.232;9.420;2023-07-20T12:00:06;21.60;99.90
20700;DHT22;10511;51.232;9.420;2023-07-20T12:02:37;21.30;99.90
20700;DHT22;10511;51.232;9.420;2023-07-20T12:05:06;21.10;99.90
20700;DHT22;10511;51.232;9.420;2023-07-20T12:07:35;20.90;99.90
20700;DHT22;10511;51.232;9.420;2023-07-20T12:10:06;20.80;99.90
20700;DHT22;10511;51.232;9.420;2023-07-20T12:12:38;21.00;99.90
20700;DHT22;10511;51.232;9.420;2023-07-20T12:15:14;21.20;99.90
20700;DHT22;10511;51.232;9.420;2023-07-20T12:17:42;21.30;99.90
20700;DHT22;10511;51.232;9.420;2023-07-20T12:20:11;21.60;99.90
20700;DHT22;10511;51.232;9.420;2023-07-20T12:22:39;21.70;99.90
20700;DHT22;10511;51.232;9.420;2023-07-20T12:25:07;21.50;99.90
20700;DHT22;10511;51.232;9.420;2023-07-20T12:27:36;21.00;99.90
20700;DHT22;10511;51.232;9.420;2023-07-20T12:30:06;20.90;99.90
20700;DHT22;10511;51.232;9.420;2023-07-20T12:32:33;21.10;99.90
20700;DHT22;10511;51.232;9.420;2023-07-20T12:35:00;21.10;99.80
20700;DHT22;10511;51.232;9.420;2023-07-20T12:37:28;20.80;99.90
20700;DHT22;10511;51.232;9.420;2023-07-20T12:39:55;20.70;99.60
20700;DHT22;10511;51.232;9.420;2023-07-20T12:42:22;20.70;99.90
20700;DHT22;10511;51.232;9.420;2023-07-20T12:44:50;20.70;99.90
20700;DHT22;10511;51.232;9.420;2023-07-20T12:47:18;20.70;99.90
20700;DHT22;10511;51.232;9.420;2023-07-20T12:49:45;20.80;99.90
20700;DHT22;10511;51.232;9.420;2023-07-20T12:52:12;21.00;99.90
20700;DHT22;10511;51.232;9.420;2023-07-20T12:54:39;21.10;98.90
20700;DHT22;10511;51.232;9.420;2023-07-20T12:57:06;21.10;99.90
20700;DHT22;10511;51.232;9.420;2023-07-20T12:59:33;21.20;98.60
20700;DHT22;10511;51.232;9.420;2023-07-20T13:02:02;21.10;98.10
20700;DHT22;10511;51.232;9.420;2023-07-20T13:04:29;21.00;97.80
20700;DHT22;10511;51.232;9.420;2023-07-20T13:06:56;21.20;99.40
20700;DHT22;10511;51.232;9.420;2023-07-20T13:09:24;21.60;99.30
20700;DHT22;10511;51.232;9.420;2023-07-20T13:11:51;21.90;97.80
20700;DHT22;10511;51.232;9.420;2023-07-20T13:14:19;21.90;97.20
20700;DHT22;10511;51.232;9.420;2023-07-20T13:16:46;22.00;98.00
20700;DHT22;10511;51.232;9.420;2023-07-20T13:19:14;22.10;96.20
20700;DHT22;10511;51.232;9.420;2023-07-20T13:21:41;22.00;97.10
20700;DHT22;10511;51.232;9.420;2023-07-20T13:24:08;22.40;96.70
20700;DHT22;10511;51.232;9.420;2023-07-20T13:26:35;21.90;96.00
20700;DHT22;10511;51.232;9.420;2023-07-20T13:29:02;21.90;97.10
20700;DHT22;10511;51.232;9.420;2023-07-20T13:31:29;21.80;97.10
20700;DHT22;10511;51.232;9.420;2023-07-20T13:33:57;21.70;97.00
20700;DHT22;10511;51.232;9.420;2023-07-20T13:36:25;21.60;96.90
20700;DHT22;10511;51.232;9.420;2023-07-20T13:38:52;21.40;97.10
20700;DHT22;10511;51.232;9.420;2023-07-20T13:41:19;21.30;96.40
20700;DHT22;10511;51.232;9.420;2023-07-20T13:43:46;21.20;97.00
20700;DHT22;10511;51.232;9.420;2023-07-20T13:46:13;20.90;97.10
20700;DHT22;10511;51.232;9.420;2023-07-20T13:48:40;20.90;97.20
20700;DHT22;10511;51.232;9.420;2023-07-20T13:51:07;20.90;96.60
20700;DHT22;10511;51.232;9.420;2023-07-20T13:53:35;20.90;97.10
20700;DHT22;10511;51.232;9.420;2023-07-20T13:56:02;21.00;97.90
20700;DHT22;10511;51.232;9.420;2023-07-20T13:58:29;21.00;97.00
20700;DHT22;10511;51.232;9.420;2023-07-20T14:00:56;21.00;97.10
20700;DHT22;10511;51.232;9.420;2023-07-20T14:03:23;20.90;97.20
20700;DHT22;10511;51.232;9.420;2023-07-20T14:05:51;21.00;98.00
20700;DHT22;10511;51.232;9.420;2023-07-20T14:08:17;21.10;97.30
20700;DHT22;10511;51.232;9.420;2023-07-20T14:10:46;21.30;98.50
20700;DHT22;10511;51.232;9.420;2023-07-20T14:13:13;21.80;99.20
20700;DHT22;10511;51.232;9.420;2023-07-20T14:15:40;22.20;95.80
20700;DHT22;10511;51.232;9.420;2023-07-20T14:18:07;22.20;95.20
20700;DHT22;10511;51.232;9.420;2023-07-20T14:20:34;22.30;95.30
20700;DHT22;10511;51.232;9.420;2023-07-20T14:23:01;22.20;96.60
20700;DHT22;10511;51.232;9.420;2023-07-20T14:25:28;22.40;94.60
20700;DHT22;10511;51.232;9.420;2023-07-20T14:27:56;22.10;94.90
20700;DHT22;10511;51.232;9.420;2023-07-20T14:30:23;21.80;94.60
20700;DHT22;10511;51.232;9.420;2023-07-20T14:32:50;21.60;95.00
20700;DHT22;10511;51.232;9.420;2023-07-20T14:35:17;21.40;95.20
20700;DHT22;10511;51.232;9.420;2023-07-20T14:37:45;21.50;94.80
20700;DHT22;10511;51.232;9.420;2023-07-20T14:40:12;21.40;95.00
20700;DHT22;10511;51.232;9.420;2023-07-20T14:42:39;21.40;95.00
20700;DHT22;10511;51.232;9.420;2023-07-20T14:45:08;21.20;94.90
20700;DHT22;10511;51.232;9.420;2023-07-20T14:47:35;21.00;95.30
20700;DHT22;10511;51.232;9.420;2023-07-20T14:50:02;20.90;95.40
20700;DHT22;10511;51.232;9.420;2023-07-20T14:52:29;21.00;96.10
20700;DHT22;10511;51.232;9.420;2023-07-20T14:54:56;21.00;96.00
20700;DHT22;10511;51.232;9.420;2023-07-20T14:57:23;21.10;96.90
20700;DHT22;10511;51.232;9.420;2023-07-20T14:59:50;21.00;96.70
20700;DHT22;10511;51.232;9.420;2023-07-20T15:02:19;21.00;96.60
20700;DHT22;10511;51.232;9.420;2023-07-20T15:04:47;21.00;95.90
20700;DHT22;10511;51.232;9.420;2023-07-20T15:07:16;21.10;95.40
20700;DHT22;10511;51.232;9.420;2023-07-20T15:09:44;21.10;95.10
20700;DHT22;10511;51.232;9.420;2023-07-20T15:12:17;21.10;97.00
20700;DHT22;10511;51.232;9.420;2023-07-20T15:15:01;21.10;95.70
20700;DHT22;10511;51.232;9.420;2023-07-20T15:17:30;21.10;96.10
20700;DHT22;10511;51.232;9.420;2023-07-20T15:19:57;21.00;95.70
20700;DHT22;10511;51.232;9.420;2023-07-20T15:22:25;21.10;96.90
20700;DHT22;10511;51.232;9.420;2023-07-20T15:24:52;21.10;96.90
20700;DHT22;10511;51.232;9.420;2023-07-20T15:27:19;21.20;95.80
20700;DHT22;10511;51.232;9.420;2023-07-20T15:29:47;21.10;95.10
20700;DHT22;10511;51.232;9.420;2023-07-20T15:32:14;21.20;96.30
20700;DHT22;10511;51.232;9.420;2023-07-20T15:34:44;21.30;95.50
20700;DHT22;10511;51.232;9.420;2023-07-20T15:37:11;21.30;96.20
20700;DHT22;10511;51.232;9.420;2023-07-20T15:39:38;21.40;95.80
20700;DHT22;10511;51.232;9.420;2023-07-20T15:42:06;21.40;96.20
20700;DHT22;10511;51.232;9.420;2023-07-20T15:44:33;21.50;94.80